3

www.moto.it

MXGP. Herlings e Covington primi nelle qualifiche del GP di Francia

3
...

Jeffrey Herlings ha fretta di affermare nuovamente il suo ruolo di mattatore della MXGP e lo ha ribadito nelle qualifiche della 10ª tappa iridata che lo ha visto partire al comando e fare gara a se indisturbato sino al traguardo dove è arrivato con quasi 18 secondi di vantaggio su Gautier Paulin rimasto al posto d’onore per tutta la manche.

Più combattuto il 3° posto, che per oltre metà gara è rimasto all’appannaggio di Tim Gajser, che è poi stato surclassato da Romain Febvre il quale ha tenuto salda la posizione sino all’ultimo giro quando Tonino Cairoli nonostante il ginocchio sinistro ancora gonfio e dolorante per la botta di Matterley Basin prima ha dribblato Gajser e poi il francese ufficiale Yamaha Monster Energy.

Lo sloveno si è così dovuto accontentare della 5ª piazza davanti all’ex compagno di squadra Evgeny Bobryshev, mentre Alex Lupino dopo essere partito oltre la 20ª posizione ha concluso 12°.

Più combattuta la MX2, che è rimasta di Jorge Prado sino a metà gara, per poi passare definitivamente nelle mani di Thomas Covington che gli era stato in scia prima di tentare il soprasso decisivo. Al giro successivo lo spagnolo è stato scavalcato anche da Pauls Jonass, chiudendo così la giornata 3° davanti a Henry Jacobi e Conrad Mewse; 11° Samuele Bernardini, mentre Miche Cervellin dopo essere spuntato nelle retrovie si è piazzato 15°.

La prima manche dell’Europeo 125 ha registrato il 4° posto di Mattia Guadagnini autore di un bel recupero da oltre la 10ª posizione, mentre quella della 250 ha visto quale migliore risultato azzurro il 9° di Alberto Forato mentre Gianluca Facchetti si è ritirato dopo una caduta.

CLASSIFICHE

MXGP - Qualifying Race - Classification

Pos Nr Rider Nat. Fed. Bike Time laps Diff. First Diff. Prev. Bestlaptime in lap Speed
1 84 Herlings, Jeffrey NED KNMV KTM 24:35.251 13 0:00.000 0:00.000 1:48.625 12 53.6
2 21 Paulin, Gautier FRA MCM Husqvarna 24:53.241 13 0:17.990 0:17.990 1:50.997 4 52.5
3 222 Cairoli, Antonio ITA FMI KTM 24:55.239 13 0:19.988 0:01.998 1:50.316 11 52.8
4 461 Febvre, Romain FRA FFM Yamaha 25:03.173 13 0:27.922 0:07.934 1:50.816 4 52.6
5 243 Gajser, Tim SLO AMZS Honda 25:10.250 13 0:34.999 0:07.077 1:51.504 4 52.3
6 777 Bobryshev, Evgeny RUS MFR Suzuki 25:21.210 13 0:45.959 0:10.960 1:52.179 7 51.9
7 91 Seewer, Jeremy SUI FMS Yamaha 25:21.571 13 0:46.320 0:00.361 1:52.077 11 52
8 89 Van Horebeek, Jeremy BEL FMB Yamaha 25:25.759 13 0:50.508 0:04.188 1:52.214 11 51.9
9 99 Anstie, Max GBR ACU Husqvarna 25:27.034 13 0:51.783 0:01.275 1:52.447 11 51.8
10 100 Searle, Tommy GBR ACU Kawasaki 25:27.171 13 0:51.920 0:00.137 1:52.110 7 52
11 24 Simpson, Shaun GBR ACU Yamaha 25:36.441 13 1:01.190 0:09.270 1:53.432 8 51.4
12 77 Lupino, Alessandro ITA FMI Kawasaki 25:44.454 13 1:09.203 0:08.013 1:53.349 6 51.4
13 22 Strijbos, Kevin BEL FMB KTM 25:47.511 13 1:12.260 0:03.057 1:53.549 7 51.3
14 128 Monticelli, Ivo ITA FMI Yamaha 25:48.741 13 1:13.490 0:01.230 1:53.242 6 51.5
15 6 Paturel, Benoit FRA FFM KTM 25:49.574 13 1:14.323 0:00.833 1:52.912 6 51.6
16 12 Nagl, Maximilian GER DMSB TM 25:49.891 13 1:14.640 0:00.317 1:52.765 7 51.7
17 259 Coldenhoff, Glenn NED KNMV KTM 25:50.302 13 1:15.051 0:00.411 1:52.874 9 51.6
18 92 Guillod, Valentin SUI FMS KTM 25:58.204 13 1:22.953 0:07.902 1:55.003 6 50.7
19 25 Desalle, Clement BEL FMB Kawasaki 26:08.161 13 1:32.910 0:09.957 1:52.922 8 51.6
20 55 Irwin, Graeme GBR MCUI KTM 26:12.244 13 1:36.993 0:04.083 1:56.262 6 50.1

MX2 - Qualifying Race - Classification

Pos Nr Rider Nat. Fed. Bike Time laps Diff. First Diff. Prev. Bestlaptime in lap Speed
1 64 Covington, Thomas USA MUL Husqvarna 25:31.406 13 0:00.000 0:00.000 1:53.765 5 51.2
2 1 Jonass, Pauls LAT LAMSF KTM 25:33.146 13 0:01.740 0:01.740 1:53.687 12 51.2
3 61 Prado, Jorge ESP RFME KTM 25:33.745 13 0:02.339 0:00.599 1:53.809 5 51.2
4 29 Jacobi, Henry GER DMSB Husqvarna 25:52.954 13 0:21.548 0:19.209 1:54.545 3 50.9
5 426 Mewse, Conrad GBR ACU KTM 25:54.835 13 0:23.429 0:01.881 1:55.196 8 50.6
6 66 Larranaga Olano, Iker ESP RFME Husqvarna 25:55.173 13 0:23.767 0:00.338 1:55.071 5 50.6
7 70 Fernandez, Ruben ESP RFME Kawasaki 26:01.811 13 0:30.405 0:06.638 1:55.985 7 50.2
8 10 Vlaanderen, Calvin RSA KNMV Honda 26:03.752 13 0:32.346 0:01.941 1:54.975 10 50.7
9 96 Lawrence, Hunter AUS MA Honda 26:04.512 13 0:33.106 0:00.760 1:54.488 10 50.9
10 193 Geerts, Jago BEL FMB Yamaha 26:08.324 13 0:36.918 0:03.812 1:55.595 10 50.4
11 321 Bernardini, Samuele ITA FMI TM 26:09.567 13 0:38.161 0:01.243 1:55.149 7 50.6
12 919 Watson, Ben GBR ACU Yamaha 26:11.143 13 0:39.737 0:01.576 1:53.309 12 51.4
13 19 Olsen, Thomas Kjer DEN DMU Husqvarna 26:25.672 13 0:54.266 0:14.529 1:56.043 9 50.2
14 747 Cervellin, Michele ITA FMI Yamaha 26:53.484 13 1:22.078 0:27.812 1:56.345 6 50.1
15 101 Pichon, Zachary FRA FFM KTM 26:58.522 13 1:27.116 0:05.038 1:57.748 7 49.5
16 297 Gole, Anton SWE SVEMO Yamaha 27:01.294 13 1:29.888 0:02.772 1:59.385 9 48.8
17 945 Bourdon, Anthony FRA FFM Husqvarna 27:02.214 13 1:30.808 0:00.920 1:59.162 2 48.9
18 931 Zanotti, Andrea SMR FSM Husqvarna 27:03.883 13 1:32.477 0:01.669 1:59.963 6 48.6
19 326 Gilbert, Josh GBR ACU Honda 26:34.852 13 1:03.446 -1:30.969 1:57.486 5 49.6
20 46 Pootjes, Davy NED KNMV KTM 27:04.984 13 1:33.578 0:30.132 1:57.655 7 49.5